Time;durP1;ratioP1;P1;durP2;ratioP2;P2;SDS_P1;SDS_P2;PMS_P1;PMS_P2;Temp;Humidity;BMP_temperature;BMP_pressure;BME280_temperature;BME280_humidity;BME280_pressure;Samples;Min_cycle;Max_cycle;Signal;HPM_P1;HPM_P2
2022/01/31 00:01:04;;;;;;;7.13;3.47;;;3.10;82.50;;;;;;5034031;28;20180;-84
2022/01/31 00:03:30;;;;;;;4.13;2.87;;;3.20;83.30;;;;;;5033859;28;20174;-84
2022/01/31 00:05:56;;;;;;;4.60;3.00;;;3.10;82.60;;;;;;5033918;28;20254;-84
2022/01/31 00:08:24;;;;;;;5.50;3.50;;;3.10;82.70;;;;;;5033752;28;20172;-85
2022/01/31 00:10:51;;;;;;;5.70;3.30;;;3.10;83.00;;;;;;5015813;28;20181;-84
2022/01/31 00:13:21;;;;;;;4.17;3.10;;;3.10;83.10;;;;;;5033678;28;20180;-84
2022/01/31 00:15:53;;;;;;;6.67;3.20;;;3.00;82.90;;;;;;5033551;28;20160;-84
2022/01/31 00:18:19;;;;;;;3.40;2.90;;;3.10;83.20;;;;;;5034108;28;20176;-84
2022/01/31 00:20:45;;;;;;;7.00;3.40;;;3.00;83.00;;;;;;5016004;28;20180;-84
2022/01/31 00:23:11;;;;;;;5.90;3.13;;;3.00;83.10;;;;;;5033497;28;20171;-83
2022/01/31 00:25:36;;;;;;;6.37;3.20;;;2.90;83.10;;;;;;5033445;28;20628;-84
2022/01/31 00:28:02;;;;;;;7.93;3.40;;;2.80;83.60;;;;;;5033737;28;20168;-84
2022/01/31 00:30:28;;;;;;;3.63;2.80;;;2.80;83.40;;;;;;5034224;28;20769;-84
2022/01/31 00:32:54;;;;;;;5.07;3.13;;;2.70;83.60;;;;;;5039367;28;20172;-84
2022/01/31 00:35:20;;;;;;;4.87;3.27;;;2.60;83.60;;;;;;5033958;28;20234;-84
2022/01/31 00:37:45;;;;;;;5.00;2.77;;;2.60;84.00;;;;;;5033388;28;20267;-84
2022/01/31 00:40:12;;;;;;;3.67;2.97;;;2.60;83.80;;;;;;5033428;28;20169;-84
2022/01/31 00:42:38;;;;;;;4.10;2.67;;;2.70;83.90;;;;;;5033631;28;20179;-84
2022/01/31 00:45:12;;;;;;;4.00;3.37;;;2.70;83.50;;;;;;5033490;28;20564;-84
2022/01/31 00:47:42;;;;;;;3.77;2.87;;;2.70;83.80;;;;;;5033459;28;20172;-83
2022/01/31 00:50:10;;;;;;;3.20;2.87;;;2.60;83.80;;;;;;5033198;28;20524;-83
2022/01/31 00:52:39;;;;;;;4.77;2.70;;;2.50;84.20;;;;;;5033163;28;20656;-84
2022/01/31 00:55:06;;;;;;;4.80;2.87;;;2.60;84.80;;;;;;5033075;28;20178;-84
2022/01/31 00:57:32;;;;;;;6.07;2.83;;;2.70;84.70;;;;;;5015149;28;20211;-85
2022/01/31 00:59:58;;;;;;;3.63;2.77;;;2.70;84.90;;;;;;5033117;28;20237;-83
2022/01/31 01:02:24;;;;;;;4.57;3.13;;;2.60;85.30;;;;;;5033198;28;20513;-84
2022/01/31 01:04:51;;;;;;;6.07;3.00;;;2.60;85.20;;;;;;5032925;28;20174;-84
2022/01/31 01:07:19;;;;;;;6.00;2.97;;;2.60;84.90;;;;;;5032850;28;20176;-84
2022/01/31 01:09:46;;;;;;;5.27;2.97;;;2.60;85.30;;;;;;5033042;28;20172;-85
2022/01/31 01:12:14;;;;;;;6.23;3.13;;;2.50;85.20;;;;;;5036981;28;20570;-85
2022/01/31 01:14:41;;;;;;;6.17;2.77;;;2.50;85.30;;;;;;5040679;28;20177;-86
2022/01/31 01:17:07;;;;;;;7.03;3.03;;;2.50;85.20;;;;;;5037430;28;20204;-85
2022/01/31 01:19:33;;;;;;;3.97;2.90;;;2.50;85.40;;;;;;5019326;28;20174;-86
2022/01/31 01:21:59;;;;;;;4.07;2.87;;;2.60;84.90;;;;;;5019114;28;20175;-85
2022/01/31 01:24:24;;;;;;;3.33;2.53;;;2.60;85.60;;;;;;5036824;28;20189;-85
2022/01/31 01:26:51;;;;;;;2.97;2.77;;;2.50;85.60;;;;;;5022967;28;20180;-84
2022/01/31 01:29:16;;;;;;;3.37;2.90;;;2.50;85.90;;;;;;5047812;28;20306;-83
2022/01/31 01:31:46;;;;;;;3.07;2.80;;;2.40;85.70;;;;;;5043457;28;20245;-83
2022/01/31 01:34:12;;;;;;;3.40;2.70;;;2.40;85.90;;;;;;5056775;28;20184;-82
2022/01/31 01:36:39;;;;;;;3.37;2.60;;;2.50;86.00;;;;;;5056151;28;20714;-82
2022/01/31 01:39:05;;;;;;;3.60;2.80;;;2.50;85.10;;;;;;5044550;28;20274;-83
2022/01/31 01:41:32;;;;;;;4.00;2.47;;;2.50;85.60;;;;;;5040807;28;20196;-83
2022/01/31 01:43:58;;;;;;;3.93;2.57;;;2.50;85.50;;;;;;5037979;28;20246;-84
2022/01/31 01:46:24;;;;;;;3.57;2.80;;;2.40;84.80;;;;;;5042445;28;20175;-84
2022/01/31 01:48:50;;;;;;;2.50;2.30;;;2.40;85.20;;;;;;5048402;28;20600;-84
2022/01/31 01:51:16;;;;;;;2.93;2.10;;;2.50;85.80;;;;;;5043196;28;20582;-85
2022/01/31 01:53:42;;;;;;;3.20;2.50;;;2.50;84.30;;;;;;5036514;28;20173;-84
2022/01/31 01:56:09;;;;;;;2.30;1.80;;;2.50;84.00;;;;;;5036294;28;20516;-84
2022/01/31 01:58:42;;;;;;;2.00;1.90;;;2.30;84.30;;;;;;5036437;28;20173;-84
2022/01/31 02:01:09;;;;;;;3.33;2.30;;;2.20;84.50;;;;;;5036259;28;20489;-84
2022/01/31 02:03:37;;;;;;;2.30;1.97;;;2.10;84.40;;;;;;5036173;28;20531;-84
2022/01/31 02:06:05;;;;;;;2.53;2.00;;;2.00;84.70;;;;;;5036157;28;20647;-84
2022/01/31 02:08:40;;;;;;;3.33;2.00;;;2.00;85.00;;;;;;5036221;28;20168;-84
2022/01/31 02:11:07;;;;;;;2.67;1.80;;;2.10;85.30;;;;;;5036078;28;20159;-84
2022/01/31 02:13:37;;;;;;;2.80;2.00;;;2.10;85.50;;;;;;5036037;28;20255;-84
2022/01/31 02:16:05;;;;;;;2.30;2.20;;;2.10;85.60;;;;;;5035926;28;20210;-83
2022/01/31 02:18:32;;;;;;;2.40;2.20;;;2.10;85.20;;;;;;5035757;28;20188;-84
2022/01/31 02:20:58;;;;;;;2.40;2.20;;;2.10;85.00;;;;;;5035436;28;20575;-84
2022/01/31 02:23:26;;;;;;;4.73;2.47;;;2.10;85.40;;;;;;5034780;28;20176;-84
2022/01/31 02:25:53;;;;;;;2.83;2.00;;;2.10;86.00;;;;;;5036913;28;20623;-84
2022/01/31 02:28:21;;;;;;;3.33;2.00;;;2.00;85.10;;;;;;5036962;28;20183;-84
2022/01/31 02:30:46;;;;;;;2.73;1.90;;;2.00;85.30;;;;;;5035659;28;20569;-84
2022/01/31 02:33:12;;;;;;;1.93;1.77;;;2.00;85.00;;;;;;5035607;28;20211;-83
2022/01/31 02:35:38;;;;;;;5.43;2.20;;;2.00;84.80;;;;;;5035570;28;20575;-84
2022/01/31 02:38:04;;;;;;;3.20;2.43;;;2.00;84.70;;;;;;5035329;28;20699;-85
2022/01/31 02:40:30;;;;;;;2.97;2.00;;;2.00;85.50;;;;;;5035459;28;20170;-84
2022/01/31 02:42:56;;;;;;;2.77;2.07;;;2.00;86.00;;;;;;5035247;28;20669;-85
2022/01/31 02:45:22;;;;;;;4.90;1.80;;;2.10;85.90;;;;;;5035417;28;20171;-84
2022/01/31 02:47:53;;;;;;;3.97;2.50;;;2.10;85.20;;;;;;5017413;28;20177;-85
2022/01/31 02:50:19;;;;;;;2.63;2.43;;;2.10;85.20;;;;;;5035233;28;20168;-84
2022/01/31 02:52:48;;;;;;;3.37;2.70;;;2.10;85.70;;;;;;5035266;28;20240;-85
2022/01/31 02:55:16;;;;;;;2.63;1.93;;;2.10;85.90;;;;;;5035726;28;20179;-85
2022/01/31 02:57:42;;;;;;;3.93;2.17;;;2.00;85.70;;;;;;5019047;28;20218;-85
2022/01/31 03:00:10;;;;;;;1.97;1.87;;;1.90;85.80;;;;;;5035256;28;20178;-85
2022/01/31 03:02:37;;;;;;;2.13;1.80;;;1.80;86.40;;;;;;5034957;28;20173;-84
2022/01/31 03:05:03;;;;;;;3.17;2.40;;;1.90;86.10;;;;;;5034930;28;20271;-84
2022/01/31 03:07:30;;;;;;;4.80;2.00;;;1.80;86.20;;;;;;5034862;28;20201;-85
2022/01/31 03:09:56;;;;;;;3.30;2.00;;;1.70;86.30;;;;;;5034711;28;20165;-85
2022/01/31 03:12:22;;;;;;;2.50;2.00;;;1.70;86.50;;;;;;5034890;28;20169;-85
2022/01/31 03:14:48;;;;;;;2.27;2.00;;;1.60;86.70;;;;;;5035180;28;20587;-85
2022/01/31 03:17:14;;;;;;;2.23;2.00;;;1.50;86.60;;;;;;5034686;28;20237;-85
2022/01/31 03:19:42;;;;;;;2.17;2.00;;;1.50;86.60;;;;;;5034715;28;20203;-84
2022/01/31 03:22:08;;;;;;;4.70;2.27;;;1.50;87.10;;;;;;5034485;28;20185;-84
2022/01/31 03:24:35;;;;;;;2.80;2.40;;;1.50;87.20;;;;;;5034512;28;20171;-83
2022/01/31 03:27:01;;;;;;;2.73;2.37;;;1.50;87.10;;;;;;5034537;28;20181;-84
2022/01/31 03:29:28;;;;;;;3.17;2.23;;;1.50;87.80;;;;;;5034358;28;20571;-83
2022/01/31 03:31:54;;;;;;;2.57;1.90;;;1.50;87.60;;;;;;5034362;28;20516;-84
2022/01/31 03:34:20;;;;;;;2.77;2.10;;;1.40;87.10;;;;;;5016307;28;20182;-84
2022/01/31 03:36:46;;;;;;;2.30;2.10;;;1.40;87.30;;;;;;5034375;28;20203;-84
2022/01/31 03:39:12;;;;;;;2.67;1.90;;;1.40;87.70;;;;;;5034643;28;20219;-84
2022/01/31 03:41:38;;;;;;;4.00;2.03;;;1.40;87.70;;;;;;5035471;28;20178;-84
2022/01/31 03:44:04;;;;;;;2.50;2.30;;;1.40;87.90;;;;;;5041382;28;20531;-84
2022/01/31 03:46:33;;;;;;;1.60;1.50;;;1.40;88.00;;;;;;5043148;28;20175;-83
2022/01/31 03:48:59;;;;;;;3.10;1.83;;;1.40;88.10;;;;;;5035012;28;20571;-84
2022/01/31 03:51:25;;;;;;;4.00;2.00;;;1.40;88.40;;;;;;5016393;28;20211;-83
2022/01/31 03:53:51;;;;;;;3.43;2.20;;;1.50;88.20;;;;;;5034048;28;20166;-84
2022/01/31 03:56:16;;;;;;;3.60;1.70;;;1.60;87.90;;;;;;5033911;28;20213;-84
2022/01/31 03:58:42;;;;;;;4.17;2.13;;;1.50;87.90;;;;;;5033953;28;20639;-84
2022/01/31 04:01:08;;;;;;;2.10;1.90;;;1.50;88.60;;;;;;5034110;28;20229;-84
2022/01/31 04:03:34;;;;;;;3.43;2.37;;;1.40;88.60;;;;;;5034021;28;20178;-84
2022/01/31 04:06:00;;;;;;;2.60;1.83;;;1.50;88.00;;;;;;5033786;28;20583;-85
2022/01/31 04:08:26;;;;;;;3.43;1.80;;;1.60;88.30;;;;;;5016086;28;20179;-84
2022/01/31 04:10:52;;;;;;;2.20;2.10;;;1.60;88.20;;;;;;5033695;28;20174;-85
2022/01/31 04:13:18;;;;;;;2.00;1.90;;;1.50;88.40;;;;;;5033712;28;20530;-85
2022/01/31 04:15:44;;;;;;;2.97;2.10;;;1.40;88.60;;;;;;5034142;28;20528;-84
2022/01/31 04:18:10;;;;;;;2.63;2.20;;;1.40;88.40;;;;;;5015992;28;20689;-84
2022/01/31 04:20:37;;;;;;;5.73;2.77;;;1.40;88.80;;;;;;5033801;28;20551;-83
2022/01/31 04:23:09;;;;;;;4.60;2.10;;;1.30;89.00;;;;;;5033811;28;20265;-84
2022/01/31 04:25:46;;;;;;;2.90;2.20;;;1.40;88.90;;;;;;5015761;28;20181;-84
2022/01/31 04:28:19;;;;;;;2.63;2.30;;;1.40;88.90;;;;;;5033617;28;20163;-84
2022/01/31 04:33:36;;;;;;;4.17;2.40;;;1.40;88.60;;;;;;5013919;28;20184;-85
2022/01/31 04:36:01;;;;;;;5.43;2.73;;;1.40;88.50;;;;;;5033420;28;20264;-84
2022/01/31 04:38:27;;;;;;;3.20;2.40;;;1.40;88.80;;;;;;5016530;28;20257;-85
2022/01/31 04:40:53;;;;;;;3.97;2.27;;;1.40;88.40;;;;;;5033560;28;20526;-84
2022/01/31 04:43:18;;;;;;;2.80;2.60;;;1.40;88.00;;;;;;5033255;28;20182;-83
2022/01/31 04:45:48;;;;;;;2.63;2.17;;;1.40;88.20;;;;;;5032524;28;20262;-83
2022/01/31 04:48:16;;;;;;;2.37;2.17;;;1.40;88.20;;;;;;5034118;28;20306;-83
2022/01/31 04:50:43;;;;;;;2.70;2.50;;;1.40;88.10;;;;;;5033143;28;20198;-83
2022/01/31 04:53:09;;;;;;;5.33;2.90;;;1.40;88.00;;;;;;5033239;28;20213;-84
2022/01/31 04:55:35;;;;;;;3.10;2.40;;;1.40;88.50;;;;;;5033029;28;20273;-84
2022/01/31 04:58:01;;;;;;;3.47;2.80;;;1.40;88.60;;;;;;5015231;28;20634;-83
2022/01/31 05:00:27;;;;;;;6.20;2.47;;;1.50;88.50;;;;;;5033011;28;20173;-84
2022/01/31 05:02:54;;;;;;;4.93;2.57;;;1.40;88.60;;;;;;5033176;28;20596;-84
2022/01/31 05:05:20;;;;;;;5.07;2.70;;;1.30;88.60;;;;;;5015260;28;20265;-84
2022/01/31 05:07:45;;;;;;;3.63;2.50;;;1.30;88.70;;;;;;5032858;28;20588;-84
2022/01/31 05:10:11;;;;;;;2.50;2.30;;;1.30;88.90;;;;;;5032975;28;20646;-84
2022/01/31 05:12:37;;;;;;;4.50;2.67;;;1.30;89.00;;;;;;5015166;28;20188;-83
2022/01/31 05:15:04;;;;;;;6.27;2.70;;;1.30;89.10;;;;;;5033183;28;20179;-83
2022/01/31 05:17:30;;;;;;;3.30;2.27;;;1.40;89.00;;;;;;5033470;28;20211;-82
2022/01/31 05:19:56;;;;;;;4.37;2.43;;;1.20;89.30;;;;;;5034639;28;20257;-84
2022/01/31 05:22:22;;;;;;;3.20;2.50;;;1.20;89.50;;;;;;5032972;28;20171;-82
2022/01/31 05:24:47;;;;;;;5.73;2.43;;;1.20;89.60;;;;;;5032904;28;20181;-84
2022/01/31 05:27:14;;;;;;;2.90;2.60;;;1.20;89.80;;;;;;5032813;28;20185;-84
2022/01/31 05:29:39;;;;;;;5.77;2.50;;;1.30;90.00;;;;;;5032858;28;20222;-83
2022/01/31 05:32:06;;;;;;;7.00;2.93;;;1.30;89.30;;;;;;5032940;28;20669;-84
2022/01/31 05:34:32;;;;;;;9.70;2.83;;;1.30;89.30;;;;;;5033314;28;20176;-84
2022/01/31 05:36:58;;;;;;;3.80;2.30;;;1.30;89.40;;;;;;5035922;28;20818;-84
2022/01/31 05:39:24;;;;;;;8.33;3.30;;;1.40;89.40;;;;;;5037984;28;20178;-83
2022/01/31 05:41:51;;;;;;;6.77;2.60;;;1.40;89.40;;;;;;5040453;28;20181;-83
2022/01/31 05:44:17;;;;;;;4.47;2.60;;;1.30;89.70;;;;;;5033793;28;20201;-83
2022/01/31 05:46:43;;;;;;;6.63;3.10;;;1.40;90.20;;;;;;5014963;28;20182;-83
2022/01/31 05:49:09;;;;;;;5.93;2.60;;;1.40;89.30;;;;;;5033355;28;20232;-83
2022/01/31 05:51:40;;;;;;;3.20;2.50;;;1.40;89.00;;;;;;5015010;28;20191;-84
2022/01/31 05:54:06;;;;;;;5.30;2.50;;;1.40;88.70;;;;;;5032850;28;20252;-83
2022/01/31 05:56:32;;;;;;;2.73;2.30;;;1.40;88.40;;;;;;5016146;28;20198;-83
2022/01/31 05:58:58;;;;;;;6.60;2.70;;;1.40;88.70;;;;;;5036300;28;20186;-83
2022/01/31 06:01:23;;;;;;;3.13;2.57;;;1.40;89.20;;;;;;5018620;28;20594;-82
2022/01/31 06:03:49;;;;;;;5.80;2.60;;;1.50;88.70;;;;;;5036319;28;20667;-83
2022/01/31 06:06:15;;;;;;;3.80;2.67;;;1.50;88.30;;;;;;5036502;28;20702;-82
2022/01/31 06:08:40;;;;;;;2.73;2.47;;;1.50;88.30;;;;;;5036270;28;20257;-83
2022/01/31 06:11:06;;;;;;;3.83;2.60;;;1.50;88.90;;;;;;5036086;28;20175;-84
2022/01/31 06:13:33;;;;;;;3.47;2.60;;;1.70;88.80;;;;;;5036342;28;20199;-84
2022/01/31 06:15:59;;;;;;;3.53;2.30;;;1.70;88.20;;;;;;5018860;28;20638;-84
2022/01/31 06:18:25;;;;;;;2.83;2.63;;;1.60;88.20;;;;;;5036921;28;20214;-84
2022/01/31 06:20:51;;;;;;;3.70;2.70;;;1.50;88.60;;;;;;5036903;28;20171;-84
2022/01/31 06:23:17;;;;;;;7.87;4.93;;;1.60;88.60;;;;;;5036331;28;20194;-84
2022/01/31 06:25:44;;;;;;;5.10;3.10;;;1.60;88.90;;;;;;5043016;28;20171;-83
2022/01/31 06:28:09;;;;;;;3.47;2.80;;;1.70;89.70;;;;;;5049386;28;20172;-83
2022/01/31 06:30:36;;;;;;;7.93;2.80;;;1.70;89.90;;;;;;5047759;28;20207;-81
2022/01/31 06:33:03;;;;;;;3.70;2.93;;;1.90;89.70;;;;;;5048118;28;20516;-83
2022/01/31 06:35:28;;;;;;;7.43;4.17;;;1.90;88.50;;;;;;5053691;28;20172;-83
2022/01/31 06:37:54;;;;;;;5.20;3.17;;;2.00;88.10;;;;;;5040022;28;20255;-83
2022/01/31 06:40:20;;;;;;;4.30;3.33;;;1.90;88.00;;;;;;5037792;28;20213;-84
2022/01/31 06:42:46;;;;;;;4.53;3.83;;;1.90;87.80;;;;;;5037296;28;20178;-83
2022/01/31 06:45:12;;;;;;;5.60;3.63;;;1.90;88.00;;;;;;5036258;28;20182;-84
2022/01/31 06:47:38;;;;;;;5.07;2.97;;;1.90;87.90;;;;;;5035698;28;20187;-83
2022/01/31 06:50:06;;;;;;;7.37;3.20;;;1.90;87.70;;;;;;5034910;28;20171;-83
2022/01/31 06:52:35;;;;;;;17.83;3.40;;;1.90;87.80;;;;;;5034368;28;20175;-83
2022/01/31 06:55:04;;;;;;;6.50;2.93;;;1.90;88.10;;;;;;5034992;28;20179;-82
2022/01/31 06:57:35;;;;;;;7.20;3.63;;;2.00;88.00;;;;;;5035153;28;20207;-83
2022/01/31 07:00:05;;;;;;;5.73;3.10;;;2.00;88.20;;;;;;5034996;28;20172;-83
2022/01/31 07:02:31;;;;;;;7.50;2.53;;;2.10;87.90;;;;;;5035330;28;20171;-83
2022/01/31 07:04:57;;;;;;;7.00;3.17;;;2.10;87.30;;;;;;5035570;28;20707;-83
2022/01/31 07:07:23;;;;;;;9.83;3.47;;;2.20;86.90;;;;;;5017150;28;20177;-85
2022/01/31 07:09:49;;;;;;;5.67;4.13;;;2.20;86.90;;;;;;5034885;28;20680;-83
2022/01/31 07:12:16;;;;;;;6.80;3.00;;;2.10;87.10;;;;;;5017181;28;20566;-82
2022/01/31 07:14:42;;;;;;;6.37;3.30;;;2.10;87.30;;;;;;5034876;28;20229;-83
2022/01/31 07:17:08;;;;;;;4.33;3.23;;;2.20;87.20;;;;;;5034803;28;20589;-83
2022/01/31 07:19:37;;;;;;;6.10;3.27;;;2.20;87.40;;;;;;5034380;28;20207;-83
2022/01/31 07:22:07;;;;;;;5.33;3.23;;;2.20;87.10;;;;;;5035018;28;20234;-84
2022/01/31 07:27:02;;;;;;;9.50;3.33;;;2.30;86.80;;;;;;5034902;28;20187;-83
2022/01/31 07:29:29;;;;;;;8.07;3.20;;;2.40;86.80;;;;;;5034505;28;20229;-83
2022/01/31 07:31:57;;;;;;;8.57;3.83;;;2.50;86.30;;;;;;5017043;28;20176;-84
2022/01/31 07:34:24;;;;;;;6.73;3.60;;;2.50;86.40;;;;;;5018767;28;20238;-84
2022/01/31 07:36:52;;;;;;;7.47;3.70;;;2.60;86.30;;;;;;5041527;28;20246;-83
2022/01/31 07:39:19;;;;;;;9.67;4.80;;;2.60;86.90;;;;;;5042338;28;20187;-84
2022/01/31 07:41:46;;;;;;;6.87;4.37;;;2.60;86.70;;;;;;5018473;28;20234;-82
2022/01/31 07:44:12;;;;;;;8.27;3.60;;;2.60;86.40;;;;;;5035118;28;20179;-83
2022/01/31 07:46:39;;;;;;;11.43;4.03;;;2.60;86.30;;;;;;5017297;28;20189;-84
2022/01/31 07:49:06;;;;;;;12.37;5.27;;;2.60;87.10;;;;;;5034585;28;20167;-83
2022/01/31 07:51:35;;;;;;;11.90;5.77;;;2.60;86.30;;;;;;5034282;28;20574;-84
2022/01/31 07:54:01;;;;;;;10.03;5.37;;;2.70;86.50;;;;;;5034126;28;20275;-84
2022/01/31 07:56:27;;;;;;;10.17;4.93;;;2.80;87.20;;;;;;5033802;28;20180;-84
2022/01/31 07:58:53;;;;;;;10.47;4.20;;;2.80;86.20;;;;;;5033935;28;20762;-83
2022/01/31 08:01:20;;;;;;;12.90;3.93;;;2.80;86.70;;;;;;5035342;28;20203;-84
2022/01/31 08:03:47;;;;;;;6.40;3.50;;;2.90;86.40;;;;;;5036641;28;20172;-83
2022/01/31 08:06:13;;;;;;;5.30;3.30;;;3.00;85.70;;;;;;5034702;28;20202;-84
2022/01/31 08:08:41;;;;;;;5.27;3.77;;;3.00;86.20;;;;;;5034077;28;20238;-83
2022/01/31 08:11:07;;;;;;;6.70;3.60;;;3.00;87.10;;;;;;5016193;28;20586;-83
2022/01/31 08:13:34;;;;;;;5.33;3.03;;;3.10;85.00;;;;;;5017125;28;20175;-83
2022/01/31 08:18:33;;;;;;;8.90;3.43;;;3.10;85.20;;;;;;5034428;28;20207;-85
2022/01/31 08:21:00;;;;;;;4.70;2.57;;;3.10;85.40;;;;;;5032260;28;20936;-84
2022/01/31 08:23:26;;;;;;;5.57;3.00;;;3.10;84.40;;;;;;5033661;28;20214;-84
2022/01/31 08:25:52;;;;;;;4.57;3.53;;;3.20;85.30;;;;;;5016008;28;20187;-84
2022/01/31 08:28:21;;;;;;;5.83;3.33;;;3.40;86.30;;;;;;5033620;28;20176;-84
2022/01/31 08:31:05;;;;;;;5.67;3.07;;;3.50;84.60;;;;;;5033372;28;20253;-84
2022/01/31 08:34:17;;;;;;;5.73;3.57;;;3.60;85.10;;;;;;5033616;28;20155;-84
2022/01/31 08:36:24;;;;;;;3.50;3.10;;;3.70;83.70;;;;;;5030396;28;20630;-84
2022/01/31 08:38:52;;;;;;;4.10;2.90;;;3.80;83.60;;;;;;5033400;28;20180;-84
2022/01/31 08:41:18;;;;;;;4.57;2.87;;;3.80;84.30;;;;;;5033006;28;20184;-84
2022/01/31 08:43:44;;;;;;;7.77;3.10;;;3.90;83.40;;;;;;5015540;28;20223;-84
2022/01/31 08:46:12;;;;;;;7.53;3.47;;;4.00;83.90;;;;;;5033372;28;20183;-84
2022/01/31 08:48:38;;;;;;;8.33;2.77;;;4.10;83.60;;;;;;5033283;28;20506;-83
2022/01/31 08:51:07;;;;;;;7.83;3.10;;;4.10;82.00;;;;;;5015855;28;20618;-83
2022/01/31 08:53:34;;;;;;;7.57;3.10;;;4.10;82.20;;;;;;5033266;28;20267;-84
2022/01/31 08:56:03;;;;;;;5.10;2.50;;;4.00;82.20;;;;;;5015481;28;20180;-83
2022/01/31 08:58:29;;;;;;;5.37;2.57;;;4.00;82.80;;;;;;5033214;28;20241;-84
2022/01/31 09:01:01;;;;;;;2.70;2.50;;;4.10;82.30;;;;;;5032758;28;20186;-84
2022/01/31 09:06:04;;;;;;;5.63;3.77;;;4.10;83.30;;;;;;5033441;28;20168;-86
2022/01/31 09:08:30;;;;;;;8.97;3.57;;;4.10;83.20;;;;;;5033144;28;20173;-83
2022/01/31 09:10:57;;;;;;;10.80;3.33;;;4.10;82.70;;;;;;5033502;28;20203;-83
2022/01/31 09:13:23;;;;;;;10.63;3.00;;;4.10;82.70;;;;;;5032999;28;20178;-83
2022/01/31 09:15:49;;;;;;;8.40;3.50;;;4.10;82.60;;;;;;5033123;28;20259;-83
2022/01/31 09:18:16;;;;;;;7.97;3.10;;;4.10;82.30;;;;;;5032997;28;20200;-83
2022/01/31 09:20:42;;;;;;;4.00;2.70;;;4.10;82.30;;;;;;5014940;28;20184;-83
2022/01/31 09:23:08;;;;;;;7.17;2.97;;;4.00;82.20;;;;;;5015579;28;20226;-83
2022/01/31 09:25:34;;;;;;;6.77;2.77;;;4.00;83.10;;;;;;5033184;28;20184;-83
2022/01/31 09:28:02;;;;;;;8.53;3.00;;;4.10;82.60;;;;;;5033087;28;20185;-84
2022/01/31 09:30:29;;;;;;;6.27;3.53;;;4.10;82.50;;;;;;5032923;28;20232;-82
2022/01/31 09:32:57;;;;;;;8.23;3.10;;;4.00;82.60;;;;;;5042728;28;20176;-83
2022/01/31 09:35:25;;;;;;;5.07;3.03;;;4.10;82.50;;;;;;5046523;28;20257;-82
2022/01/31 09:37:51;;;;;;;6.47;3.17;;;4.10;83.10;;;;;;5041118;28;20671;-83
2022/01/31 09:40:20;;;;;;;6.13;3.00;;;4.20;82.90;;;;;;5038336;28;20167;-83
2022/01/31 09:51:10;;;;;;;11.07;3.70;;;4.40;83.50;;;;;;5037461;28;20653;-83
2022/01/31 09:53:40;;;;;;;12.33;3.90;;;4.50;82.90;;;;;;5036436;28;20525;-84
2022/01/31 09:56:09;;;;;;;12.37;3.73;;;4.50;83.00;;;;;;5036296;28;20258;-83
2022/01/31 09:58:37;;;;;;;22.17;8.37;;;4.60;83.30;;;;;;5036216;28;20204;-83
2022/01/31 10:01:07;;;;;;;15.97;7.67;;;4.70;83.00;;;;;;5035804;28;20177;-83
2022/01/31 10:03:43;;;;;;;15.77;6.17;;;4.70;83.00;;;;;;5036187;28;20219;-83
2022/01/31 10:06:19;;;;;;;9.73;4.60;;;4.90;82.70;;;;;;5018041;28;20237;-83
2022/01/31 10:08:44;;;;;;;12.47;5.20;;;5.10;82.20;;;;;;5035720;28;20243;-83
2022/01/31 10:11:29;;;;;;;10.70;4.50;;;5.10;82.80;;;;;;5036139;28;20255;-83
2022/01/31 10:16:52;;;;;;;10.70;5.13;;;5.10;82.70;;;;;;5035976;28;20215;-83
2022/01/31 10:19:18;;;;;;;14.37;5.97;;;5.10;84.00;;;;;;5035970;28;20551;-83
2022/01/31 10:22:02;;;;;;;23.93;8.90;;;5.20;85.20;;;;;;5035375;28;20181;-84
2022/01/31 10:24:29;;;;;;;23.67;9.20;;;5.10;85.60;;;;;;5035808;28;20171;-83
2022/01/31 10:26:56;;;;;;;21.63;9.50;;;5.20;85.90;;;;;;5035804;28;20164;-83
2022/01/31 10:29:24;;;;;;;24.60;10.43;;;5.10;86.30;;;;;;5035697;28;20223;-83
2022/01/31 10:32:01;;;;;;;15.80;9.40;;;5.00;86.80;;;;;;5035822;28;20626;-83
2022/01/31 10:34:55;;;;;;;23.43;9.83;;;5.00;87.50;;;;;;5035468;28;20164;-82
2022/01/31 10:37:23;;;;;;;19.87;10.47;;;5.00;87.80;;;;;;5033779;28;20302;-82
2022/01/31 10:51:53;;;;;;;26.30;10.10;;;4.90;88.30;;;;;;5035750;28;20650;-83
2022/01/31 10:54:28;;;;;;;23.57;9.80;;;5.00;89.90;;;;;;5035034;28;20765;-84
2022/01/31 10:56:58;;;;;;;26.47;9.53;;;5.00;89.60;;;;;;5034937;28;20238;-83
2022/01/31 10:59:35;;;;;;;31.90;9.77;;;5.10;88.90;;;;;;5035073;28;20172;-83
2022/01/31 11:02:04;;;;;;;28.50;9.47;;;5.10;89.10;;;;;;5034992;28;20188;-83
2022/01/31 11:04:38;;;;;;;24.13;9.33;;;5.20;89.20;;;;;;5035051;28;20203;-84
2022/01/31 11:07:07;;;;;;;24.87;8.93;;;5.20;88.80;;;;;;5035292;28;20159;-83
2022/01/31 11:09:36;;;;;;;20.80;7.43;;;5.20;88.60;;;;;;5036740;28;20705;-83
2022/01/31 11:12:03;;;;;;;18.40;8.13;;;5.30;88.60;;;;;;5035208;28;20173;-83
2022/01/31 11:14:29;;;;;;;24.27;8.70;;;5.30;88.40;;;;;;5035123;28;20180;-83
2022/01/31 11:16:55;;;;;;;18.60;7.83;;;5.30;87.80;;;;;;5016854;28;20218;-83
2022/01/31 11:19:31;;;;;;;20.27;7.17;;;5.30;88.10;;;;;;5017184;28;20183;-83
2022/01/31 11:22:04;;;;;;;17.60;7.17;;;5.40;88.00;;;;;;5016812;28;20317;-84
2022/01/31 11:24:37;;;;;;;17.27;6.57;;;5.50;87.60;;;;;;5035063;28;20171;-84
2022/01/31 11:27:09;;;;;;;12.80;6.30;;;5.60;85.90;;;;;;5035261;28;20161;-83
2022/01/31 11:29:42;;;;;;;16.03;6.80;;;5.60;86.50;;;;;;5040140;28;20724;-83
2022/01/31 11:32:09;;;;;;;16.73;6.33;;;5.60;86.20;;;;;;5032382;28;20311;-83
2022/01/31 11:34:38;;;;;;;13.93;6.67;;;5.70;85.10;;;;;;5041274;28;20222;-83
2022/01/31 11:37:04;;;;;;;16.03;8.00;;;5.80;84.00;;;;;;5036250;28;20261;-82
2022/01/31 11:39:30;;;;;;;11.37;6.20;;;5.80;83.90;;;;;;5024196;28;20184;-82
2022/01/31 11:42:02;;;;;;;17.30;6.97;;;5.80;84.50;;;;;;5041392;28;20268;-83
2022/01/31 11:44:48;;;;;;;13.20;6.33;;;5.80;84.40;;;;;;5037948;28;20259;-83
2022/01/31 11:47:19;;;;;;;12.57;6.10;;;5.70;84.70;;;;;;5035375;28;20616;-83
2022/01/31 11:49:52;;;;;;;11.67;6.37;;;5.60;84.30;;;;;;5017201;28;20527;-83
2022/01/31 11:52:19;;;;;;;11.33;5.60;;;5.50;85.00;;;;;;5034411;28;20219;-82
2022/01/31 11:54:55;;;;;;;10.87;5.80;;;5.30;84.80;;;;;;5034289;28;20702;-83
2022/01/31 11:57:32;;;;;;;14.73;6.77;;;5.30;84.70;;;;;;5033894;28;20206;-83
2022/01/31 12:00:04;;;;;;;10.20;5.30;;;5.30;85.40;;;;;;5034226;28;20165;-83
2022/01/31 12:02:32;;;;;;;11.37;5.37;;;5.40;84.30;;;;;;5033709;28;20180;-83
2022/01/31 12:05:07;;;;;;;9.67;5.37;;;5.50;83.20;;;;;;5034040;28;20215;-83
2022/01/31 12:07:46;;;;;;;8.40;4.73;;;5.60;84.00;;;;;;5034175;28;20172;-83
2022/01/31 12:10:38;;;;;;;10.40;4.80;;;5.60;84.50;;;;;;5033731;28;20186;-83
2022/01/31 12:24:39;;;;;;;12.50;4.93;;;5.80;84.50;;;;;;4995645;28;20264;-82
2022/01/31 12:27:14;;;;;;;10.87;4.97;;;5.90;84.00;;;;;;4994041;28;20169;-83
2022/01/31 12:29:46;;;;;;;11.17;5.30;;;6.00;84.50;;;;;;4992034;28;20722;-83
2022/01/31 12:32:33;;;;;;;11.10;5.33;;;5.90;84.60;;;;;;4975888;28;20205;-83
2022/01/31 12:35:01;;;;;;;9.20;5.23;;;5.80;84.80;;;;;;4992215;28;20186;-84
2022/01/31 12:37:33;;;;;;;12.67;5.57;;;5.70;84.40;;;;;;4991841;28;20669;-82
2022/01/31 12:40:08;;;;;;;11.70;5.70;;;5.60;85.20;;;;;;4992325;28;20169;-83
2022/01/31 12:45:11;;;;;;;6.53;4.73;;;5.50;83.50;;;;;;4992024;28;20167;-82
2022/01/31 12:47:37;;;;;;;13.37;5.90;;;5.40;83.90;;;;;;4991856;28;20182;-83
2022/01/31 12:50:24;;;;;;;15.80;5.67;;;5.40;83.60;;;;;;4991971;28;20641;-82
2022/01/31 12:52:56;;;;;;;12.87;4.77;;;5.40;83.10;;;;;;4991901;28;20181;-82
2022/01/31 12:55:27;;;;;;;9.13;4.93;;;5.40;84.10;;;;;;5022096;28;20187;-82
2022/01/31 12:57:54;;;;;;;12.30;4.53;;;5.30;84.00;;;;;;5032872;28;20560;-82
2022/01/31 13:00:32;;;;;;;19.17;5.67;;;5.30;83.10;;;;;;5015290;28;20681;-82
2022/01/31 13:02:58;;;;;;;11.27;5.10;;;5.50;82.50;;;;;;5032746;28;20187;-82
2022/01/31 13:05:31;;;;;;;10.70;4.17;;;5.50;83.30;;;;;;5033830;28;20533;-83
2022/01/31 13:07:57;;;;;;;13.47;5.03;;;5.70;83.60;;;;;;5021781;28;20580;-83
2022/01/31 13:10:23;;;;;;;15.87;4.47;;;5.80;82.20;;;;;;5022277;28;20553;-83
2022/01/31 13:13:02;;;;;;;10.87;4.80;;;6.00;82.50;;;;;;5022758;28;20196;-83
2022/01/31 13:15:30;;;;;;;7.07;4.50;;;6.10;81.90;;;;;;5045834;28;20172;-82
2022/01/31 13:18:24;;;;;;;6.17;4.00;;;6.20;81.30;;;;;;5040362;28;20222;-82
2022/01/31 13:20:52;;;;;;;12.80;4.20;;;6.30;81.00;;;;;;5038550;28;20179;-82
2022/01/31 13:23:18;;;;;;;6.20;3.67;;;6.40;81.00;;;;;;5040035;28;20181;-82
2022/01/31 13:25:44;;;;;;;8.03;3.77;;;6.40;81.50;;;;;;5046181;28;20252;-81
2022/01/31 13:28:10;;;;;;;5.50;3.70;;;6.60;81.50;;;;;;5049869;28;20225;-82
2022/01/31 13:30:35;;;;;;;8.23;4.60;;;6.60;81.30;;;;;;5044499;28;20735;-83
2022/01/31 13:33:04;;;;;;;9.57;3.93;;;6.70;80.40;;;;;;5039836;28;20178;-83
2022/01/31 13:35:37;;;;;;;7.30;3.83;;;6.70;80.90;;;;;;5039734;28;20258;-83
2022/01/31 13:38:09;;;;;;;9.03;3.80;;;6.70;80.20;;;;;;5039233;28;20265;-82
2022/01/31 13:40:45;;;;;;;10.87;4.07;;;6.70;80.90;;;;;;5039411;28;20178;-82
2022/01/31 13:43:23;;;;;;;6.57;3.93;;;6.60;81.10;;;;;;5038946;28;20286;-83
2022/01/31 13:46:29;;;;;;;8.33;3.60;;;6.70;80.70;;;;;;5021600;28;20169;-83
2022/01/31 13:49:07;;;;;;;10.00;4.33;;;6.70;80.40;;;;;;5039348;28;20168;-83